Time;durP1;ratioP1;P1;durP2;ratioP2;P2;SDS_P1;SDS_P2;PMS_P1;PMS_P2;Temp;Humidity;BMP_temperature;BMP_pressure;BME280_temperature;BME280_humidity;BME280_pressure;Samples;Min_cycle;Max_cycle;Signal;HPM_P1;HPM_P2
2023/01/08 00:01:04;;;;;;;2.63;2.43;;;;;;;;;;5067803;28;20208;-73
2023/01/08 00:03:31;;;;;;;2.37;2.23;;;;;;;;;;5048669;28;20285;-72
2023/01/08 00:06:00;;;;;;;2.97;2.67;;;;;;;;;;5047183;28;20219;-73
2023/01/08 00:08:27;;;;;;;3.30;2.23;;;;;;;;;;5048639;28;20285;-73
2023/01/08 00:10:55;;;;;;;2.40;2.23;;;;;;;;;;5047750;28;20232;-73
2023/01/08 00:13:22;;;;;;;2.87;2.30;;;;;;;;;;5052661;28;20293;-72
2023/01/08 00:15:50;;;;;;;2.00;1.80;;;;;;;;;;5064698;28;20571;-72
2023/01/08 00:18:17;;;;;;;3.27;2.13;;;;;;;;;;5048514;28;20211;-72
2023/01/08 00:20:45;;;;;;;2.30;2.17;;;;;;;;;;5049388;28;20268;-73
2023/01/08 00:23:12;;;;;;;2.23;2.13;;;;;;;;;;5048379;28;20593;-72
2023/01/08 00:25:39;;;;;;;2.37;1.80;;;;;;;;;;5061881;28;20680;-72
2023/01/08 00:28:06;;;;;;;1.70;1.60;;;;;;;;;;5048109;28;20285;-73
2023/01/08 00:30:33;;;;;;;1.57;1.50;;;;;;;;;;5057472;28;20257;-71
2023/01/08 00:33:02;;;;;;;3.13;1.93;;;;;;;;;;5064042;28;20265;-71
2023/01/08 00:35:29;;;;;;;2.47;2.07;;;;;;;;;;5059778;28;20266;-72
2023/01/08 00:37:56;;;;;;;2.57;1.70;;;;;;;;;;5052624;28;20687;-72
2023/01/08 00:40:23;;;;;;;1.33;1.33;;;;;;;;;;5054530;28;21345;-72
2023/01/08 00:42:50;;;;;;;4.03;1.20;;;;;;;;;;5051094;28;20273;-72
2023/01/08 00:45:17;;;;;;;1.23;1.23;;;;;;;;;;5062789;28;20200;-72
2023/01/08 00:47:44;;;;;;;1.63;1.50;;;;;;;;;;5067282;28;20225;-72
2023/01/08 00:50:17;;;;;;;1.43;1.33;;;;;;;;;;5059812;28;20320;-72
2023/01/08 00:52:44;;;;;;;1.60;1.50;;;;;;;;;;5072011;28;20214;-72
2023/01/08 00:55:11;;;;;;;1.57;1.40;;;;;;;;;;5064891;28;20553;-73
2023/01/08 00:57:39;;;;;;;1.23;1.23;;;;;;;;;;5055222;28;20203;-73
2023/01/08 01:00:07;;;;;;;1.53;1.50;;;;;;;;;;5061874;28;20629;-73
2023/01/08 01:02:35;;;;;;;1.90;1.50;;;;;;;;;;5071654;28;20302;-74
2023/01/08 01:05:02;;;;;;;2.20;2.10;;;;;;;;;;5063608;28;20219;-74
2023/01/08 01:07:30;;;;;;;2.10;2.00;;;;;;;;;;5051005;28;20239;-72
2023/01/08 01:09:57;;;;;;;1.53;1.53;;;;;;;;;;5049932;28;20300;-73
2023/01/08 01:12:25;;;;;;;2.63;2.43;;;;;;;;;;5051754;28;20216;-71
2023/01/08 01:14:52;;;;;;;2.83;2.27;;;;;;;;;;5050908;28;20231;-71
2023/01/08 01:17:19;;;;;;;4.00;2.20;;;;;;;;;;5051472;28;20258;-71
2023/01/08 01:19:46;;;;;;;2.20;2.10;;;;;;;;;;5050276;28;20285;-71
2023/01/08 01:22:13;;;;;;;2.20;2.10;;;;;;;;;;5051458;28;20207;-71
2023/01/08 01:24:41;;;;;;;4.70;2.50;;;;;;;;;;5051687;28;20216;-71
2023/01/08 01:27:08;;;;;;;1.80;1.70;;;;;;;;;;5051283;28;20991;-69
2023/01/08 01:29:35;;;;;;;2.13;2.00;;;;;;;;;;5052586;28;20211;-71
2023/01/08 01:32:02;;;;;;;2.50;2.30;;;;;;;;;;5071168;28;20253;-71
2023/01/08 01:34:29;;;;;;;2.23;2.13;;;;;;;;;;5056367;28;20874;-70
2023/01/08 01:36:56;;;;;;;2.37;2.27;;;;;;;;;;5069597;28;20207;-71
2023/01/08 01:39:23;;;;;;;2.20;2.00;;;;;;;;;;5066823;28;20691;-71
2023/01/08 01:41:52;;;;;;;6.17;2.00;;;;;;;;;;5069417;28;20207;-72
2023/01/08 01:44:35;;;;;;;3.37;2.23;;;;;;;;;;5069393;28;20460;-72
2023/01/08 01:47:06;;;;;;;1.53;1.53;;;;;;;;;;5059337;28;20227;-71
2023/01/08 01:49:33;;;;;;;4.17;2.47;;;;;;;;;;5055378;28;20207;-70
2023/01/08 01:52:03;;;;;;;2.20;2.03;;;;;;;;;;5068019;28;20222;-71
2023/01/08 01:54:31;;;;;;;2.37;2.27;;;;;;;;;;5069578;28;20721;-71
2023/01/08 01:57:00;;;;;;;2.43;2.10;;;;;;;;;;5051727;28;20595;-72
2023/01/08 01:59:27;;;;;;;1.90;1.80;;;;;;;;;;5056593;28;20593;-71
2023/01/08 02:01:54;;;;;;;2.50;2.37;;;;;;;;;;5052540;28;20207;-71
2023/01/08 02:04:21;;;;;;;1.60;1.50;;;;;;;;;;5064296;28;20214;-71
2023/01/08 02:06:53;;;;;;;3.47;1.90;;;;;;;;;;5054285;28;20208;-70
2023/01/08 02:09:24;;;;;;;3.33;2.63;;;;;;;;;;5061214;28;20620;-70
2023/01/08 02:14:38;;;;;;;2.70;2.40;;;;;;;;;;5060618;28;20553;-71
2023/01/08 02:17:10;;;;;;;3.13;2.30;;;;;;;;;;5068215;28;20961;-72
2023/01/08 02:19:40;;;;;;;2.80;2.57;;;;;;;;;;5054276;28;20686;-71
2023/01/08 02:22:12;;;;;;;3.63;2.80;;;;;;;;;;5061515;28;20670;-71
2023/01/08 02:24:43;;;;;;;2.30;2.20;;;;;;;;;;5054484;28;20211;-72
2023/01/08 02:27:12;;;;;;;2.67;2.47;;;;;;;;;;5061403;28;20206;-71
2023/01/08 02:29:40;;;;;;;3.03;2.33;;;;;;;;;;5065083;28;20207;-71
2023/01/08 02:32:07;;;;;;;2.50;2.30;;;;;;;;;;5057799;28;20204;-71
2023/01/08 02:34:34;;;;;;;3.77;2.30;;;;;;;;;;5068137;28;20222;-71
2023/01/08 02:37:01;;;;;;;4.17;2.03;;;;;;;;;;5058214;28;20686;-71
2023/01/08 02:39:38;;;;;;;2.30;2.10;;;;;;;;;;5054922;28;20341;-70
2023/01/08 02:42:06;;;;;;;1.90;1.80;;;;;;;;;;5060035;28;20264;-71
2023/01/08 02:44:49;;;;;;;2.83;2.07;;;;;;;;;;5050664;28;20214;-70
2023/01/08 02:47:20;;;;;;;3.53;2.93;;;;;;;;;;5061591;28;20211;-70
2023/01/08 02:49:47;;;;;;;3.30;2.43;;;;;;;;;;5067345;28;20214;-70
2023/01/08 02:52:15;;;;;;;2.37;2.17;;;;;;;;;;5066657;28;20215;-70
2023/01/08 02:54:43;;;;;;;2.43;2.23;;;;;;;;;;5063287;28;20230;-71
2023/01/08 02:57:12;;;;;;;2.23;2.13;;;;;;;;;;5068888;28;20230;-70
2023/01/08 02:59:40;;;;;;;2.40;2.23;;;;;;;;;;5055069;28;20212;-71
2023/01/08 03:02:09;;;;;;;2.63;2.43;;;;;;;;;;5056672;28;20199;-71
2023/01/08 03:04:38;;;;;;;2.87;2.63;;;;;;;;;;5046439;28;20216;-71
2023/01/08 03:07:05;;;;;;;3.30;2.50;;;;;;;;;;5059319;28;20207;-72
2023/01/08 03:09:32;;;;;;;2.80;2.57;;;;;;;;;;5050558;28;20248;-71
2023/01/08 03:12:01;;;;;;;4.27;3.00;;;;;;;;;;5052865;28;20238;-71
2023/01/08 03:14:29;;;;;;;3.17;2.87;;;;;;;;;;5058687;28;20214;-71
2023/01/08 03:16:58;;;;;;;2.50;2.30;;;;;;;;;;5067911;28;20207;-70
2023/01/08 03:19:30;;;;;;;2.70;2.10;;;;;;;;;;5060655;28;20217;-70
2023/01/08 03:21:58;;;;;;;3.40;3.10;;;;;;;;;;5067491;28;20266;-71
2023/01/08 03:24:27;;;;;;;2.50;2.20;;;;;;;;;;5067918;28;20626;-70
2023/01/08 03:26:56;;;;;;;3.07;2.70;;;;;;;;;;5066563;28;20680;-71
2023/01/08 03:29:24;;;;;;;4.90;3.00;;;;;;;;;;5068632;28;20230;-71
2023/01/08 03:31:52;;;;;;;3.77;2.90;;;;;;;;;;5065379;28;20327;-70
2023/01/08 03:34:20;;;;;;;2.13;2.03;;;;;;;;;;5068716;28;20210;-70
2023/01/08 03:36:51;;;;;;;2.93;2.73;;;;;;;;;;5055819;28;20215;-71
2023/01/08 03:39:19;;;;;;;4.53;2.50;;;;;;;;;;5067353;28;20644;-71
2023/01/08 03:41:48;;;;;;;2.83;2.40;;;;;;;;;;5067886;28;20268;-72
2023/01/08 03:44:15;;;;;;;2.60;2.40;;;;;;;;;;5055903;28;20248;-71
2023/01/08 03:46:44;;;;;;;3.00;2.70;;;;;;;;;;5067369;28;20261;-71
2023/01/08 03:49:12;;;;;;;3.00;2.73;;;;;;;;;;5066742;28;20222;-71
2023/01/08 03:51:40;;;;;;;3.73;2.80;;;;;;;;;;5068232;28;20215;-71
2023/01/08 03:54:09;;;;;;;2.73;2.63;;;;;;;;;;5066114;28;20231;-70
2023/01/08 03:56:36;;;;;;;2.80;2.60;;;;;;;;;;5055453;28;20228;-71
2023/01/08 03:59:03;;;;;;;5.30;3.07;;;;;;;;;;5048404;28;20207;-71
2023/01/08 04:01:30;;;;;;;2.47;2.37;;;;;;;;;;5062935;28;20208;-71
2023/01/08 04:03:57;;;;;;;3.80;3.37;;;;;;;;;;5048372;28;20262;-71
2023/01/08 04:06:24;;;;;;;2.63;2.27;;;;;;;;;;5065029;28;20210;-71
2023/01/08 04:08:51;;;;;;;3.37;3.07;;;;;;;;;;5068204;28;20296;-70
2023/01/08 04:11:20;;;;;;;2.53;2.33;;;;;;;;;;5057203;28;20228;-71
2023/01/08 04:13:47;;;;;;;2.20;1.87;;;;;;;;;;5068184;28;20211;-71
2023/01/08 04:16:14;;;;;;;2.73;2.53;;;;;;;;;;5057277;28;20199;-71
2023/01/08 04:18:41;;;;;;;2.70;2.50;;;;;;;;;;5063887;28;20199;-71
2023/01/08 04:21:08;;;;;;;2.10;2.00;;;;;;;;;;5066200;28;20223;-71
2023/01/08 04:23:35;;;;;;;5.03;2.47;;;;;;;;;;5059565;28;20728;-71
2023/01/08 04:26:04;;;;;;;3.23;2.73;;;;;;;;;;5067826;28;20211;-71
2023/01/08 04:28:33;;;;;;;2.37;2.17;;;;;;;;;;5051639;28;20322;-71
2023/01/08 04:31:00;;;;;;;2.60;2.40;;;;;;;;;;5051812;28;20233;-71
2023/01/08 04:33:27;;;;;;;5.07;2.60;;;;;;;;;;5058500;28;20206;-71
2023/01/08 04:35:54;;;;;;;2.80;2.57;;;;;;;;;;5071407;28;20309;-71
2023/01/08 04:38:21;;;;;;;2.07;1.83;;;;;;;;;;5070872;28;20218;-71
2023/01/08 04:40:48;;;;;;;2.40;2.20;;;;;;;;;;5069704;28;20211;-71
2023/01/08 04:43:15;;;;;;;2.30;2.20;;;;;;;;;;5061474;28;20606;-71
2023/01/08 04:45:43;;;;;;;3.17;2.63;;;;;;;;;;5057678;28;20575;-70
2023/01/08 04:48:10;;;;;;;2.37;2.17;;;;;;;;;;5061600;28;20223;-70
2023/01/08 04:50:37;;;;;;;2.20;2.10;;;;;;;;;;5065621;28;20680;-70
2023/01/08 04:53:04;;;;;;;2.80;2.50;;;;;;;;;;5056093;28;20285;-70
2023/01/08 04:55:31;;;;;;;2.30;2.20;;;;;;;;;;5067461;28;20291;-71
2023/01/08 04:57:58;;;;;;;3.30;2.30;;;;;;;;;;5061067;28;20224;-71
2023/01/08 05:00:25;;;;;;;4.00;2.67;;;;;;;;;;5056571;28;20211;-71
2023/01/08 05:02:53;;;;;;;2.77;2.57;;;;;;;;;;5061480;28;20204;-71
2023/01/08 05:05:20;;;;;;;4.37;2.67;;;;;;;;;;5061447;28;20211;-71
2023/01/08 05:07:47;;;;;;;3.63;2.87;;;;;;;;;;5051288;28;20217;-70
2023/01/08 05:10:14;;;;;;;4.43;2.90;;;;;;;;;;5059777;28;20288;-69
2023/01/08 05:12:41;;;;;;;2.63;2.50;;;;;;;;;;5068698;28;20724;-68
2023/01/08 05:15:09;;;;;;;2.80;2.13;;;;;;;;;;5058343;28;20208;-68
2023/01/08 05:17:36;;;;;;;2.93;2.53;;;;;;;;;;5059568;28;20264;-68
2023/01/08 05:20:05;;;;;;;2.73;2.53;;;;;;;;;;5066564;28;20207;-68
2023/01/08 05:22:35;;;;;;;2.97;2.77;;;;;;;;;;5067647;28;20302;-68
2023/01/08 05:25:02;;;;;;;3.00;2.90;;;;;;;;;;5062272;28;20207;-69
2023/01/08 05:27:29;;;;;;;2.83;2.63;;;;;;;;;;5059683;28;20666;-71
2023/01/08 05:29:56;;;;;;;3.30;3.03;;;;;;;;;;5055536;28;20239;-70
2023/01/08 05:32:23;;;;;;;3.03;2.83;;;;;;;;;;5055973;28;20207;-71
2023/01/08 05:34:50;;;;;;;2.43;2.23;;;;;;;;;;5054516;28;20624;-70
2023/01/08 05:37:18;;;;;;;2.93;2.63;;;;;;;;;;5054592;28;20260;-70
2023/01/08 05:39:45;;;;;;;2.60;2.50;;;;;;;;;;5053213;28;20232;-70
2023/01/08 05:42:12;;;;;;;3.80;2.97;;;;;;;;;;5050846;28;20199;-71
2023/01/08 05:44:39;;;;;;;2.40;2.27;;;;;;;;;;5056207;28;20241;-71
2023/01/08 05:47:06;;;;;;;3.10;2.57;;;;;;;;;;5054729;28;20207;-70
2023/01/08 05:49:33;;;;;;;4.40;2.67;;;;;;;;;;5054679;28;20456;-71
2023/01/08 05:52:00;;;;;;;2.80;2.60;;;;;;;;;;5055900;28;20253;-71
2023/01/08 05:54:29;;;;;;;2.93;2.73;;;;;;;;;;5054487;28;20211;-70
2023/01/08 05:56:56;;;;;;;3.97;2.53;;;;;;;;;;5058667;28;20391;-70
2023/01/08 05:59:23;;;;;;;2.50;2.33;;;;;;;;;;5049341;28;20282;-71
2023/01/08 06:01:50;;;;;;;2.67;2.47;;;;;;;;;;5057975;28;20773;-70
2023/01/08 06:04:17;;;;;;;2.83;2.13;;;;;;;;;;5050402;28;20203;-71
2023/01/08 06:06:44;;;;;;;2.40;2.30;;;;;;;;;;5057717;28;20211;-71
2023/01/08 06:09:11;;;;;;;2.83;2.63;;;;;;;;;;5024617;28;1030345;-71
2023/01/08 06:11:39;;;;;;;2.20;2.10;;;;;;;;;;5065394;28;20203;-70
2023/01/08 06:14:06;;;;;;;5.47;2.83;;;;;;;;;;5070125;28;20207;-71
2023/01/08 06:16:33;;;;;;;6.20;2.50;;;;;;;;;;5066279;28;20203;-70
2023/01/08 06:19:00;;;;;;;2.93;2.60;;;;;;;;;;5066333;28;20272;-71
2023/01/08 06:21:27;;;;;;;3.37;2.00;;;;;;;;;;5059104;28;20212;-71
2023/01/08 06:23:54;;;;;;;2.23;2.13;;;;;;;;;;5051275;28;20208;-70
2023/01/08 06:26:21;;;;;;;2.37;2.27;;;;;;;;;;5057109;28;20630;-69
2023/01/08 06:28:49;;;;;;;2.17;2.07;;;;;;;;;;5058661;28;20227;-69
2023/01/08 06:31:16;;;;;;;2.10;2.00;;;;;;;;;;5062404;28;20207;-68
2023/01/08 06:33:43;;;;;;;2.33;2.17;;;;;;;;;;5060077;28;20233;-69
2023/01/08 06:36:11;;;;;;;2.73;2.53;;;;;;;;;;5058027;28;20204;-69
2023/01/08 06:38:38;;;;;;;2.30;2.20;;;;;;;;;;5051774;28;20211;-70
2023/01/08 06:41:05;;;;;;;2.70;2.50;;;;;;;;;;5069356;28;20211;-70
2023/01/08 06:43:33;;;;;;;2.07;1.97;;;;;;;;;;5058368;28;20539;-70
2023/01/08 06:46:01;;;;;;;2.27;2.17;;;;;;;;;;5055526;28;20348;-70
2023/01/08 06:48:28;;;;;;;3.17;2.33;;;;;;;;;;5058734;28;20211;-71
2023/01/08 06:50:56;;;;;;;5.10;1.93;;;;;;;;;;5061003;28;20211;-70
2023/01/08 06:53:23;;;;;;;3.80;1.60;;;;;;;;;;5064281;28;20214;-70
2023/01/08 06:55:55;;;;;;;2.17;2.00;;;;;;;;;;5049370;28;20289;-71
2023/01/08 06:58:22;;;;;;;1.73;1.63;;;;;;;;;;5057922;28;20451;-70
2023/01/08 07:00:49;;;;;;;2.30;2.07;;;;;;;;;;5059114;28;20620;-70
2023/01/08 07:03:18;;;;;;;1.80;1.67;;;;;;;;;;5063436;28;20212;-70
2023/01/08 07:05:45;;;;;;;2.00;1.90;;;;;;;;;;5056293;28;20222;-71
2023/01/08 07:08:12;;;;;;;6.20;1.90;;;;;;;;;;5066506;28;20211;-70
2023/01/08 07:10:39;;;;;;;1.80;1.70;;;;;;;;;;5063017;28;20927;-69
2023/01/08 07:13:07;;;;;;;3.80;2.00;;;;;;;;;;5049301;28;20257;-69
2023/01/08 07:15:36;;;;;;;2.13;1.93;;;;;;;;;;5060305;28;20211;-70
2023/01/08 07:18:04;;;;;;;5.20;1.57;;;;;;;;;;5052108;28;20203;-69
2023/01/08 07:20:33;;;;;;;1.70;1.60;;;;;;;;;;5062632;28;20231;-69
2023/01/08 07:23:02;;;;;;;2.27;1.33;;;;;;;;;;5065216;28;20210;-70
2023/01/08 07:25:29;;;;;;;1.73;1.63;;;;;;;;;;5057754;28;20258;-70
2023/01/08 07:27:56;;;;;;;2.17;1.77;;;;;;;;;;5054865;28;20218;-70
2023/01/08 07:30:23;;;;;;;2.17;1.70;;;;;;;;;;5064992;28;20223;-72
2023/01/08 07:32:50;;;;;;;3.13;1.57;;;;;;;;;;5055103;28;20554;-71
2023/01/08 07:35:17;;;;;;;2.40;1.93;;;;;;;;;;5056490;28;20206;-70
2023/01/08 07:37:46;;;;;;;1.10;1.10;;;;;;;;;;5056028;28;20285;-71
2023/01/08 07:40:13;;;;;;;1.50;1.50;;;;;;;;;;5048967;28;20207;-71
2023/01/08 07:42:40;;;;;;;2.13;1.63;;;;;;;;;;5049527;28;20214;-71
2023/01/08 07:45:08;;;;;;;2.40;2.20;;;;;;;;;;5054646;28;20209;-70
2023/01/08 07:47:35;;;;;;;2.33;1.63;;;;;;;;;;5068270;28;20211;-71
2023/01/08 07:50:02;;;;;;;1.80;1.70;;;;;;;;;;5062500;28;20318;-71
2023/01/08 07:52:30;;;;;;;3.10;1.83;;;;;;;;;;5065084;28;20207;-70
2023/01/08 07:54:58;;;;;;;2.10;1.90;;;;;;;;;;5055374;28;20577;-70
2023/01/08 07:57:26;;;;;;;1.57;1.47;;;;;;;;;;5059806;28;20617;-71
2023/01/08 07:59:53;;;;;;;2.27;2.10;;;;;;;;;;5051174;28;20526;-71
2023/01/08 08:02:21;;;;;;;2.27;2.10;;;;;;;;;;5049607;28;20298;-71
2023/01/08 08:04:48;;;;;;;2.13;2.03;;;;;;;;;;5050170;28;20215;-71
2023/01/08 08:07:16;;;;;;;1.40;1.40;;;;;;;;;;5061580;28;20225;-71
2023/01/08 08:09:43;;;;;;;1.93;1.83;;;;;;;;;;5058398;28;20330;-71
2023/01/08 08:12:12;;;;;;;3.63;2.27;;;;;;;;;;5047862;28;20207;-71
2023/01/08 08:14:39;;;;;;;1.90;1.80;;;;;;;;;;5047663;28;20215;-71
2023/01/08 08:17:06;;;;;;;2.20;2.10;;;;;;;;;;5058454;28;20252;-71
2023/01/08 08:19:33;;;;;;;1.70;1.60;;;;;;;;;;5056401;28;20191;-70
2023/01/08 08:22:00;;;;;;;2.17;2.00;;;;;;;;;;5058874;28;20204;-70
2023/01/08 08:24:27;;;;;;;1.80;1.80;;;;;;;;;;5057354;28;21514;-70
2023/01/08 08:26:55;;;;;;;2.00;1.90;;;;;;;;;;5057278;28;20211;-70
2023/01/08 08:29:24;;;;;;;1.93;1.83;;;;;;;;;;5061501;28;20296;-70
2023/01/08 08:31:52;;;;;;;2.83;2.07;;;;;;;;;;5059465;28;20569;-70
2023/01/08 08:34:21;;;;;;;1.97;1.87;;;;;;;;;;5055182;28;20199;-70
2023/01/08 08:36:48;;;;;;;3.17;2.10;;;;;;;;;;5051066;28;20215;-71
2023/01/08 08:39:15;;;;;;;1.70;1.60;;;;;;;;;;5060206;28;20715;-71
2023/01/08 08:41:42;;;;;;;1.27;1.27;;;;;;;;;;5057676;28;20257;-71
2023/01/08 08:44:09;;;;;;;1.87;1.73;;;;;;;;;;5056524;28;20260;-71
2023/01/08 08:46:38;;;;;;;1.83;1.73;;;;;;;;;;5055955;28;20224;-71
2023/01/08 08:49:05;;;;;;;2.03;1.93;;;;;;;;;;5054699;28;20237;-71
2023/01/08 08:51:32;;;;;;;1.93;1.70;;;;;;;;;;5053022;28;20208;-71
2023/01/08 08:53:59;;;;;;;3.10;1.87;;;;;;;;;;5061193;28;20211;-71
2023/01/08 08:56:28;;;;;;;1.93;1.70;;;;;;;;;;5062269;28;20238;-71
2023/01/08 08:58:56;;;;;;;1.60;1.50;;;;;;;;;;5057174;28;20235;-71
2023/01/08 09:01:24;;;;;;;1.60;1.50;;;;;;;;;;5054274;28;20212;-71
2023/01/08 09:03:52;;;;;;;1.53;1.43;;;;;;;;;;5052430;28;20266;-68
2023/01/08 09:06:19;;;;;;;1.23;1.13;;;;;;;;;;5067002;28;20215;-74
2023/01/08 09:08:46;;;;;;;1.70;1.60;;;;;;;;;;5067296;28;20223;-70
2023/01/08 09:11:13;;;;;;;1.30;1.30;;;;;;;;;;5066018;28;20227;-71
2023/01/08 09:13:40;;;;;;;2.83;1.40;;;;;;;;;;5060868;28;20231;-72
2023/01/08 09:16:08;;;;;;;1.43;1.33;;;;;;;;;;5064954;28;20215;-72
2023/01/08 09:18:35;;;;;;;1.63;1.53;;;;;;;;;;5057863;28;20212;-69
2023/01/08 09:21:06;;;;;;;2.40;1.67;;;;;;;;;;5060014;28;20558;-71
2023/01/08 09:23:33;;;;;;;1.87;1.77;;;;;;;;;;5052373;28;20294;-71
2023/01/08 09:26:00;;;;;;;1.97;1.63;;;;;;;;;;5061565;28;20650;-70
2023/01/08 09:28:27;;;;;;;1.70;1.60;;;;;;;;;;5055115;28;20219;-69
2023/01/08 09:30:54;;;;;;;1.70;1.60;;;;;;;;;;5060767;28;20537;-70
2023/01/08 09:33:21;;;;;;;1.27;1.17;;;;;;;;;;5057534;28;20669;-70
2023/01/08 09:35:48;;;;;;;1.67;1.67;;;;;;;;;;5061956;28;20270;-70
2023/01/08 09:38:17;;;;;;;1.60;1.50;;;;;;;;;;5059088;28;20203;-70
2023/01/08 09:40:47;;;;;;;1.80;1.70;;;;;;;;;;5067862;28;20210;-70
2023/01/08 09:43:16;;;;;;;1.93;1.63;;;;;;;;;;5063645;28;20748;-69
2023/01/08 09:45:44;;;;;;;2.27;1.97;;;;;;;;;;5061317;28;20211;-69
2023/01/08 09:48:13;;;;;;;3.63;1.87;;;;;;;;;;5061647;28;20223;-69
2023/01/08 09:50:40;;;;;;;2.17;1.97;;;;;;;;;;5063450;28;20292;-68
2023/01/08 09:53:11;;;;;;;2.30;1.90;;;;;;;;;;5065675;28;20703;-69
2023/01/08 09:55:39;;;;;;;2.57;2.37;;;;;;;;;;5057210;28;20234;-68
2023/01/08 09:58:09;;;;;;;2.90;2.33;;;;;;;;;;5058837;28;20660;-66
2023/01/08 10:00:36;;;;;;;2.97;2.37;;;;;;;;;;5070531;28;20302;-70
2023/01/08 10:03:03;;;;;;;2.20;2.07;;;;;;;;;;5063968;28;20302;-68
2023/01/08 10:05:31;;;;;;;2.30;2.10;;;;;;;;;;5053066;28;20203;-70
2023/01/08 10:07:58;;;;;;;1.97;1.87;;;;;;;;;;5056272;28;20219;-68
2023/01/08 10:10:27;;;;;;;4.67;2.30;;;;;;;;;;5061577;28;20289;-69
2023/01/08 10:12:56;;;;;;;6.07;2.50;;;;;;;;;;5057575;28;20210;-66
2023/01/08 10:15:23;;;;;;;2.17;1.97;;;;;;;;;;5055911;28;20733;-68
2023/01/08 10:18:02;;;;;;;2.27;2.17;;;;;;;;;;5050530;28;20203;-67
2023/01/08 10:20:30;;;;;;;2.07;1.97;;;;;;;;;;5056642;28;20297;-68
2023/01/08 10:22:57;;;;;;;1.97;1.80;;;;;;;;;;5059051;28;20304;-69
2023/01/08 10:25:26;;;;;;;3.00;1.53;;;;;;;;;;5062027;28;20612;-69
2023/01/08 10:27:54;;;;;;;2.10;2.00;;;;;;;;;;5063028;28;20207;-70
2023/01/08 10:30:24;;;;;;;2.70;2.50;;;;;;;;;;5064207;28;20223;-69
2023/01/08 10:32:53;;;;;;;2.67;2.47;;;;;;;;;;5065094;28;20214;-69
2023/01/08 10:35:21;;;;;;;1.80;1.70;;;;;;;;;;5063951;28;20210;-69
2023/01/08 10:37:49;;;;;;;2.33;2.20;;;;;;;;;;5054088;28;20207;-70
2023/01/08 10:40:23;;;;;;;1.80;1.70;;;;;;;;;;5057043;28;20733;-69
2023/01/08 10:42:51;;;;;;;2.60;2.37;;;;;;;;;;5053389;28;20293;-69
2023/01/08 10:45:20;;;;;;;1.87;1.77;;;;;;;;;;5069586;28;20684;-69
2023/01/08 10:47:51;;;;;;;2.40;2.20;;;;;;;;;;5052825;28;20212;-70
2023/01/08 10:50:22;;;;;;;2.10;1.90;;;;;;;;;;5060528;28;20223;-69
2023/01/08 10:52:53;;;;;;;2.00;1.90;;;;;;;;;;5050843;28;20667;-69
2023/01/08 10:55:23;;;;;;;3.90;2.50;;;;;;;;;;5069002;28;20296;-70
2023/01/08 10:57:54;;;;;;;2.20;2.10;;;;;;;;;;5056910;28;20207;-69
2023/01/08 11:00:25;;;;;;;2.93;2.23;;;;;;;;;;5049634;28;20212;-70
2023/01/08 11:02:53;;;;;;;4.57;2.30;;;;;;;;;;5057340;28;20211;-69
2023/01/08 11:05:20;;;;;;;2.90;2.70;;;;;;;;;;5069178;28;20210;-69
2023/01/08 11:07:52;;;;;;;2.13;2.03;;;;;;;;;;5068331;28;20199;-69
2023/01/08 11:10:24;;;;;;;2.73;2.47;;;;;;;;;;5056758;28;20246;-69
2023/01/08 11:12:55;;;;;;;3.37;2.50;;;;;;;;;;5066418;28;20199;-70
2023/01/08 11:15:32;;;;;;;2.07;1.97;;;;;;;;;;5057010;28;20215;-70
2023/01/08 11:18:20;;;;;;;2.20;2.00;;;;;;;;;;5060616;28;20222;-67
2023/01/08 11:20:49;;;;;;;2.30;2.20;;;;;;;;;;5045473;28;20208;-68
2023/01/08 11:23:17;;;;;;;7.13;2.17;;;;;;;;;;5048348;28;20212;-68
2023/01/08 11:25:46;;;;;;;4.27;1.37;;;;;;;;;;5057583;28;20623;-68
2023/01/08 11:28:16;;;;;;;1.90;1.80;;;;;;;;;;5056998;28;20195;-68
2023/01/08 11:30:44;;;;;;;1.87;1.77;;;;;;;;;;5065061;28;20685;-67
2023/01/08 11:33:14;;;;;;;2.07;1.97;;;;;;;;;;5058706;28;20677;-69
2023/01/08 11:35:43;;;;;;;1.80;1.70;;;;;;;;;;5065049;28;20288;-69
2023/01/08 11:38:13;;;;;;;1.53;1.53;;;;;;;;;;5048685;28;20203;-68
2023/01/08 11:40:42;;;;;;;1.90;1.70;;;;;;;;;;5055154;28;20207;-69
2023/01/08 11:43:18;;;;;;;1.77;1.67;;;;;;;;;;5050358;28;20210;-68
2023/01/08 11:46:00;;;;;;;3.07;1.80;;;;;;;;;;5057143;28;20203;-69
2023/01/08 11:48:35;;;;;;;1.67;1.57;;;;;;;;;;5054290;28;20226;-69
2023/01/08 11:51:17;;;;;;;1.77;1.77;;;;;;;;;;5057175;28;20223;-69
2023/01/08 11:53:47;;;;;;;1.87;1.60;;;;;;;;;;5048525;28;20259;-66
2023/01/08 11:56:20;;;;;;;2.00;1.90;;;;;;;;;;5051976;28;20228;-65
2023/01/08 11:58:55;;;;;;;1.70;1.60;;;;;;;;;;5062993;28;20626;-63
2023/01/08 12:01:29;;;;;;;2.97;2.10;;;;;;;;;;5056500;28;20722;-67
2023/01/08 12:04:05;;;;;;;1.73;1.60;;;;;;;;;;5055072;28;20215;-69
2023/01/08 12:06:38;;;;;;;1.90;1.70;;;;;;;;;;5055619;28;20214;-70
2023/01/08 12:09:14;;;;;;;1.60;1.50;;;;;;;;;;5053164;28;20664;-69
2023/01/08 12:11:49;;;;;;;1.43;1.43;;;;;;;;;;5062211;28;20965;-66
2023/01/08 12:14:24;;;;;;;1.53;1.43;;;;;;;;;;5052101;28;21650;-68
2023/01/08 12:16:57;;;;;;;1.23;1.23;;;;;;;;;;5055245;28;20203;-68
2023/01/08 12:19:32;;;;;;;1.27;1.23;;;;;;;;;;5060962;28;20202;-69
2023/01/08 12:22:05;;;;;;;1.40;1.30;;;;;;;;;;5062558;28;20206;-69
2023/01/08 12:24:46;;;;;;;1.10;1.10;;;;;;;;;;5048380;28;20232;-67
2023/01/08 12:27:16;;;;;;;3.43;1.20;;;;;;;;;;5056654;28;20211;-68
2023/01/08 12:29:53;;;;;;;1.10;1.03;;;;;;;;;;5053151;28;20203;-68
2023/01/08 12:32:27;;;;;;;0.70;0.70;;;;;;;;;;5058272;28;20235;-70
2023/01/08 12:34:57;;;;;;;1.00;1.00;;;;;;;;;;5048150;28;20242;-68
2023/01/08 12:37:27;;;;;;;1.03;0.83;;;;;;;;;;5048378;28;20415;-72
2023/01/08 12:39:59;;;;;;;0.83;0.83;;;;;;;;;;5056891;28;20708;-69
2023/01/08 12:42:28;;;;;;;0.80;0.80;;;;;;;;;;5053217;28;20208;-72
2023/01/08 12:44:57;;;;;;;0.90;0.90;;;;;;;;;;5066091;28;20597;-67
2023/01/08 12:47:26;;;;;;;0.97;0.80;;;;;;;;;;5051553;28;20329;-70
2023/01/08 12:49:57;;;;;;;0.70;0.70;;;;;;;;;;5050300;28;20211;-70
2023/01/08 12:52:27;;;;;;;0.70;0.70;;;;;;;;;;5057508;28;20631;-67
2023/01/08 12:54:59;;;;;;;0.70;0.70;;;;;;;;;;5055985;28;20662;-67
2023/01/08 12:57:28;;;;;;;0.97;0.90;;;;;;;;;;5055818;28;20235;-68
2023/01/08 12:59:58;;;;;;;0.80;0.80;;;;;;;;;;5058616;28;20218;-67
2023/01/08 13:02:33;;;;;;;0.67;0.67;;;;;;;;;;5063588;28;20638;-68
2023/01/08 13:05:10;;;;;;;3.10;0.90;;;;;;;;;;5058841;28;20207;-68
2023/01/08 13:07:42;;;;;;;0.60;0.60;;;;;;;;;;5054646;28;20203;-68
2023/01/08 13:10:20;;;;;;;0.70;0.70;;;;;;;;;;5053467;28;20234;-68
2023/01/08 13:15:36;;;;;;;0.80;0.80;;;;;;;;;;5053652;28;20708;-68
2023/01/08 13:18:08;;;;;;;1.33;0.90;;;;;;;;;;5051296;28;20210;-69
2023/01/08 13:20:35;;;;;;;1.20;1.10;;;;;;;;;;5057705;28;20807;-68
2023/01/08 13:23:03;;;;;;;2.40;0.70;;;;;;;;;;5057077;28;20221;-68
2023/01/08 13:25:34;;;;;;;0.57;0.57;;;;;;;;;;5059021;28;20215;-69
2023/01/08 13:28:21;;;;;;;0.97;0.97;;;;;;;;;;5055796;28;20554;-68
2023/01/08 13:30:48;;;;;;;0.83;0.80;;;;;;;;;;5063134;28;20276;-69
2023/01/08 13:33:25;;;;;;;2.20;1.03;;;;;;;;;;5060354;28;20748;-68
2023/01/08 13:35:52;;;;;;;0.93;0.93;;;;;;;;;;5057725;28;20207;-69
2023/01/08 13:38:20;;;;;;;0.60;0.60;;;;;;;;;;5070958;28;20214;-70
2023/01/08 13:40:55;;;;;;;6.13;1.07;;;;;;;;;;5059404;28;20211;-69
2023/01/08 13:43:23;;;;;;;1.00;0.90;;;;;;;;;;5056241;28;20219;-69
2023/01/08 13:45:55;;;;;;;0.90;0.90;;;;;;;;;;5061313;28;20208;-69
2023/01/08 13:48:23;;;;;;;0.83;0.83;;;;;;;;;;5047657;28;20212;-69
2023/01/08 13:50:50;;;;;;;0.77;0.77;;;;;;;;;;5056420;28;20236;-68
2023/01/08 13:53:17;;;;;;;0.73;0.73;;;;;;;;;;5069858;28;20215;-69
2023/01/08 13:55:49;;;;;;;1.03;1.03;;;;;;;;;;5059989;28;20222;-69
2023/01/08 13:58:19;;;;;;;0.70;0.70;;;;;;;;;;5050177;28;20758;-69
2023/01/08 14:00:47;;;;;;;0.83;0.83;;;;;;;;;;5056447;28;20233;-69
2023/01/08 14:03:24;;;;;;;0.80;0.80;;;;;;;;;;5066681;28;20264;-68
2023/01/08 14:05:52;;;;;;;0.97;0.97;;;;;;;;;;5068769;28;20264;-68
2023/01/08 14:08:22;;;;;;;1.00;1.00;;;;;;;;;;5059659;28;20207;-68
2023/01/08 14:10:49;;;;;;;1.00;1.00;;;;;;;;;;5069716;28;20694;-67
2023/01/08 14:13:18;;;;;;;1.13;1.13;;;;;;;;;;5067257;28;20214;-67
2023/01/08 14:15:46;;;;;;;2.83;0.70;;;;;;;;;;5067936;28;20203;-68
2023/01/08 14:18:14;;;;;;;1.10;0.97;;;;;;;;;;5058538;28;20731;-67
2023/01/08 14:20:42;;;;;;;1.10;1.00;;;;;;;;;;5069621;28;20215;-68
2023/01/08 14:23:10;;;;;;;0.73;0.73;;;;;;;;;;5066850;28;20215;-68
2023/01/08 14:25:38;;;;;;;1.10;1.00;;;;;;;;;;5069518;28;20301;-68
2023/01/08 14:28:05;;;;;;;2.40;1.10;;;;;;;;;;5067538;28;20219;-68
2023/01/08 14:30:35;;;;;;;0.90;0.83;;;;;;;;;;5066922;28;20272;-68
2023/01/08 14:33:03;;;;;;;0.90;0.90;;;;;;;;;;5059045;28;20594;-68
2023/01/08 14:35:32;;;;;;;0.73;0.73;;;;;;;;;;5053282;28;20233;-68
2023/01/08 14:38:00;;;;;;;0.70;0.70;;;;;;;;;;5061444;28;20207;-68
2023/01/08 14:40:29;;;;;;;0.80;0.80;;;;;;;;;;5067834;28;20284;-68
2023/01/08 14:42:56;;;;;;;0.87;0.87;;;;;;;;;;5060753;28;20284;-68
2023/01/08 14:45:24;;;;;;;0.80;0.80;;;;;;;;;;5055649;28;20211;-68
2023/01/08 14:47:54;;;;;;;0.90;0.90;;;;;;;;;;5068032;28;20284;-68
2023/01/08 14:50:24;;;;;;;0.47;0.47;;;;;;;;;;5065032;28;20216;-68
2023/01/08 14:52:51;;;;;;;1.77;0.90;;;;;;;;;;5049085;28;20237;-68
2023/01/08 14:55:19;;;;;;;2.40;1.00;;;;;;;;;;5046691;28;20199;-68
2023/01/08 14:57:47;;;;;;;0.70;0.70;;;;;;;;;;5060403;28;20289;-68